Etusivu
METAR-TAF:

METAR-TAF

Lentoasemat :

Aarhus, Tanska

Leveyspiiri: 56-18N, Pituuspiiri: 010-37E, korkeus merenpinnasta: 23 m

Tämänhetkinen sää

Tämä raportti tehtiin 31 minuuttia sitten, kello 15.20 UTC
Tuuli 9 kn lännestä/luoteesta
Lämpötila 12°C
Kosteus 76%
Ilmanpaine 1026 hPa
Näkyvyys 10 km tai enemmän

METAR: EKAH 201520Z AUTO 29009KT 9999NDV R10R/P1500N R28L/1200D BKN110/// BKN130/// 12/08 Q1026

Aika: 17:51 (15:51 UTC)

Sääennuste

Tämä raportti tehtiin 4 tuntia ja 54 minuuttia sitten, kello 10.57 UTC
Ennuste voimassa 20. päivästä klo 12 UTC - 21. päivään klo 12 UTC
Tuuli 12 kn lännestä/luoteesta
Näkyvyys 10 km tai enemmän
Hajanaisia pilviä 2500 ft:n korkeudessa
Tulossa
20. päivästä klo 22 UTC - 21. päivään klo 01 UTC
Tuuli 8 kn lounaasta
Ajoittain
21. päivästä klo 10 UTC - 21. päivään klo 12 UTC
Hajonneita pilviä 1000 ft:n korkeudessa

TAF: EKAH 201057Z 2012/2112 29012KT 9999 SCT025 BECMG 2022/2101 23008KT TEMPO 2110/2112 BKN010

Säähavainnot ja -ennusteet yli 4000 lentoasemalta (METAR- ja TAF-raportit).

Käytössä olevat sääasemat on merkitty karttaan keltaisilla ja punaisilla pisteillä.

Aseta hiiri pisteen päälle nähdäksesi sääaseman nimen.

Klikkaa sitten nähdäksesi säähavainnot ja -ennusteet.

Kartan vaihtaminen: klikkaa mustalla rastilla varustettuja vihreitä pisteitä, niin voit zoomata sisään; viivalla varustettua vihreää pistettä, niin voit zoomata ulos tai vihreitä nuolia, niin pääset viereisille kartoille.


METAR-TAF: